createdAt,value
2018-08-01T00:01:22.364Z,94126.64
2018-08-01T00:03:50.014Z,94125.28
2018-08-01T00:06:18.021Z,94128.20
2018-08-01T00:08:45.798Z,94132.73
2018-08-01T00:11:13.514Z,94132.77
2018-08-01T00:13:41.229Z,94132.77
2018-08-01T00:16:08.950Z,94129.50
2018-08-01T00:18:36.655Z,94132.18
2018-08-01T00:21:04.390Z,94124.19
2018-08-01T00:23:32.065Z,94124.73
2018-08-01T00:25:59.795Z,94127.68
2018-08-01T00:28:27.485Z,94128.20
2018-08-01T00:30:55.190Z,94131.16
2018-08-01T00:33:22.901Z,94126.88
2018-08-01T00:35:50.683Z,94128.47
2018-08-01T00:38:18.347Z,94128.47
2018-08-01T00:40:46.281Z,94128.47
2018-08-01T00:43:13.934Z,94128.75
2018-08-01T00:45:41.686Z,94128.22
2018-08-01T00:48:09.398Z,94130.36
2018-08-01T00:50:37.085Z,94125.55
2018-08-01T00:53:04.781Z,94127.13
2018-08-01T00:55:32.457Z,94126.07
2018-08-01T00:58:00.205Z,94126.34
2018-08-01T01:00:27.902Z,94122.05
2018-08-01T01:02:55.698Z,94129.50
2018-08-01T01:05:23.386Z,94125.20
2018-08-01T01:07:51.214Z,94127.02
2018-08-01T01:10:18.930Z,94128.98
2018-08-01T01:12:46.594Z,94122.52
2018-08-01T01:15:14.265Z,94123.06
2018-08-01T01:17:41.919Z,94121.66
2018-08-01T01:20:09.574Z,94123.82
2018-08-01T01:22:37.287Z,94123.23
2018-08-01T01:25:04.980Z,94124.02
2018-08-01T01:27:32.682Z,94125.02
2018-08-01T01:30:00.419Z,94122.80
2018-08-01T01:32:28.157Z,94118.52
2018-08-01T01:34:55.873Z,94119.55
2018-08-01T01:37:23.561Z,94113.41
2018-08-01T01:39:51.224Z,94112.06
2018-08-01T01:42:18.912Z,94112.56
2018-08-01T01:44:46.796Z,94117.89
2018-08-01T01:47:14.465Z,94114.48
2018-08-01T01:49:42.130Z,94117.97
2018-08-01T01:52:15.571Z,94115.80
2018-08-01T01:54:43.323Z,94119.00
2018-08-01T01:57:11.056Z,94116.31
2018-08-01T01:59:38.754Z,94114.72
2018-08-01T02:02:07.918Z,94118.17
2018-08-01T02:04:36.013Z,94120.02
2018-08-01T02:07:03.668Z,94120.80
2018-08-01T02:09:31.380Z,94119.44
2018-08-01T02:11:59.170Z,94125.25
2018-08-01T02:14:26.834Z,94120.66
2018-08-01T02:16:54.550Z,94115.31
2018-08-01T02:19:22.282Z,94109.63
2018-08-01T02:21:49.988Z,94109.69
2018-08-01T02:24:17.666Z,94105.88
2018-08-01T02:26:45.336Z,94108.55
2018-08-01T02:29:13.094Z,94109.08
2018-08-01T02:31:41.150Z,94114.84
2018-08-01T02:34:08.838Z,94118.64
2018-08-01T02:36:36.534Z,94111.62
2018-08-01T02:39:06.390Z,94112.14
2018-08-01T02:41:34.045Z,94108.95
2018-08-01T02:44:02.010Z,94109.75
2018-08-01T02:46:29.753Z,94114.91
2018-08-01T02:48:57.461Z,94118.14
2018-08-01T02:51:25.129Z,94130.48
2018-08-01T02:53:52.917Z,94122.34
2018-08-01T02:56:20.853Z,94127.08
2018-08-01T02:58:48.556Z,94119.59
2018-08-01T03:01:16.262Z,94123.22
2018-08-01T03:03:44.336Z,94121.44
2018-08-01T03:06:12.003Z,94124.80
2018-08-01T03:08:39.662Z,94122.98
2018-08-01T03:11:07.620Z,94128.11
2018-08-01T03:13:35.330Z,94125.20
2018-08-01T03:16:03.056Z,94123.54
2018-08-01T03:18:31.005Z,94124.02
2018-08-01T03:20:58.698Z,94126.05
2018-08-01T03:23:26.398Z,94128.88
2018-08-01T03:25:54.074Z,94132.27
2018-08-01T03:28:21.816Z,94130.85
2018-08-01T03:30:49.887Z,94127.13
2018-08-01T03:33:17.521Z,94128.03
2018-08-01T03:35:45.233Z,94126.98
2018-08-01T03:38:12.910Z,94130.36
2018-08-01T03:40:40.634Z,94125.52
2018-08-01T03:43:08.298Z,94121.87
2018-08-01T03:45:35.958Z,94121.44
2018-08-01T03:48:03.647Z,94119.05
2018-08-01T03:50:31.331Z,94124.41
2018-08-01T03:52:59.012Z,94124.53
2018-08-01T03:55:26.754Z,94122.00
2018-08-01T03:57:54.450Z,94129.95
2018-08-01T04:00:22.100Z,94127.95
2018-08-01T04:02:50.338Z,94130.67
2018-08-01T04:05:18.047Z,94131.03
2018-08-01T04:07:45.722Z,94134.34
2018-08-01T04:10:13.377Z,94131.03
2018-08-01T04:12:41.069Z,94132.06
2018-08-01T04:15:08.749Z,94133.61
2018-08-01T04:17:36.449Z,94134.08
2018-08-01T04:20:04.195Z,94133.52
2018-08-01T04:22:31.870Z,94131.66
2018-08-01T04:24:59.517Z,94135.91
2018-08-01T04:27:27.233Z,94128.27
2018-08-01T04:29:54.894Z,94125.80
2018-08-01T04:32:22.553Z,94134.13
2018-08-01T04:34:50.454Z,94126.21
2018-08-01T04:37:18.102Z,94123.38
2018-08-01T04:39:45.757Z,94127.38
2018-08-01T04:42:13.620Z,94128.72
2018-08-01T04:44:41.346Z,94132.80
2018-08-01T04:47:08.988Z,94138.22
2018-08-01T04:49:36.714Z,94138.99
2018-08-01T04:52:04.677Z,94136.95
2018-08-01T04:54:32.347Z,94134.08
2018-08-01T04:57:00.322Z,94131.66
2018-08-01T04:59:27.974Z,94137.62
2018-08-01T05:01:55.626Z,94138.25
2018-08-01T05:04:23.593Z,94143.95
2018-08-01T05:06:51.302Z,94139.67
2018-08-01T05:09:18.963Z,94141.89
2018-08-01T05:11:46.645Z,94142.20
2018-08-01T05:14:14.354Z,94154.61
2018-08-01T05:16:42.047Z,94154.37
2018-08-01T05:19:09.726Z,94153.33
2018-08-01T05:21:37.498Z,94158.48
2018-08-01T05:24:05.575Z,94158.50
2018-08-01T05:26:33.891Z,94153.14
2018-08-01T05:29:01.577Z,94159.33
2018-08-01T05:31:29.257Z,94156.37
2018-08-01T05:33:56.958Z,94156.92
2018-08-01T05:36:24.618Z,94160.41
2018-08-01T05:38:52.309Z,94163.83
2018-08-01T05:41:20.021Z,94162.77
2018-08-01T05:43:47.721Z,94161.67
2018-08-01T05:46:15.378Z,94165.16
2018-08-01T05:48:43.048Z,94163.78
2018-08-01T05:51:10.734Z,94166.46
2018-08-01T05:53:38.414Z,94161.63
2018-08-01T05:56:06.178Z,94166.30
2018-08-01T05:58:33.881Z,94164.06
2018-08-01T06:01:01.547Z,94166.94
2018-08-01T06:03:29.283Z,94165.02
2018-08-01T06:05:56.952Z,94160.65
2018-08-01T06:08:25.053Z,94162.76
2018-08-01T06:10:52.763Z,94161.00
2018-08-01T06:13:20.429Z,94161.67
2018-08-01T06:15:48.173Z,94164.95
2018-08-01T06:18:15.866Z,94168.05
2018-08-01T06:20:43.587Z,94163.75
2018-08-01T06:23:11.262Z,94169.66
2018-08-01T06:25:38.975Z,94169.07
2018-08-01T06:28:06.696Z,94163.20
2018-08-01T06:30:34.413Z,94161.65
2018-08-01T06:33:02.084Z,94167.56
2018-08-01T06:35:29.786Z,94166.88
2018-08-01T06:37:58.659Z,94167.61
2018-08-01T06:40:26.410Z,94167.34
2018-08-01T06:42:54.166Z,94167.96
2018-08-01T06:45:21.858Z,94173.96
2018-08-01T06:47:49.589Z,94171.06
2018-08-01T06:50:17.297Z,94171.66
2018-08-01T06:52:45.046Z,94169.30
2018-08-01T06:55:12.807Z,94175.98
2018-08-01T06:57:40.546Z,94176.37
2018-08-01T07:00:09.287Z,94171.92
2018-08-01T07:02:37.187Z,94181.28
2018-08-01T07:05:05.043Z,94174.69
2018-08-01T07:07:32.808Z,94171.64
2018-08-01T07:10:00.650Z,94165.53
2018-08-01T07:12:28.446Z,94169.19
2018-08-01T07:14:56.249Z,94166.78
2018-08-01T07:17:24.230Z,94168.92
2018-08-01T07:19:52.220Z,94172.18
2018-08-01T07:22:20.061Z,94168.83
2018-08-01T07:24:47.674Z,94162.68
2018-08-01T07:27:15.396Z,94162.34
2018-08-01T07:29:43.110Z,94167.80
2018-08-01T07:32:10.806Z,94164.58
2018-08-01T07:34:38.567Z,94166.00
2018-08-01T07:37:06.378Z,94158.66
2018-08-01T07:39:34.123Z,94162.34
2018-08-01T07:42:01.839Z,94156.61
2018-08-01T07:44:29.578Z,94166.06
2018-08-01T07:46:57.805Z,94163.32
2018-08-01T07:49:25.507Z,94162.34
2018-08-01T07:51:53.238Z,94166.45
2018-08-01T07:54:20.934Z,94167.48
2018-08-01T07:56:48.691Z,94168.98
2018-08-01T07:59:16.369Z,94155.96
2018-08-01T08:01:44.067Z,94161.94
2018-08-01T08:04:12.034Z,94158.78
2018-08-01T08:06:39.754Z,94156.50
2018-08-01T08:09:08.306Z,94160.23
2018-08-01T08:11:36.034Z,94150.91
2018-08-01T08:14:03.758Z,94161.17
2018-08-01T08:16:31.462Z,94156.06
2018-08-01T08:18:59.219Z,94149.93
2018-08-01T08:21:26.939Z,94164.40
2018-08-01T08:23:54.790Z,94158.52
2018-08-01T08:26:22.500Z,94154.97
2018-08-01T08:28:50.229Z,94161.33
2018-08-01T08:31:17.990Z,94158.93
2018-08-01T08:33:45.962Z,94159.25
2018-08-01T08:36:13.642Z,94151.75
2018-08-01T08:38:41.378Z,94154.66
2018-08-01T08:41:09.310Z,94154.43
2018-08-01T08:43:36.978Z,94158.14
2018-08-01T08:46:04.689Z,94158.02
2018-08-01T08:48:32.559Z,94149.48
2018-08-01T08:51:00.136Z,94154.66
2018-08-01T08:53:27.837Z,94152.75
2018-08-01T08:55:55.535Z,94158.23
2018-08-01T08:58:23.239Z,94157.11
2018-08-01T09:00:50.981Z,94153.48
2018-08-01T09:03:18.721Z,94158.50
2018-08-01T09:05:46.411Z,94157.47
2018-08-01T09:08:14.095Z,94159.41
2018-08-01T09:10:42.039Z,94151.87
2018-08-01T09:13:09.693Z,94162.45
2018-08-01T09:15:37.410Z,94168.38
2018-08-01T09:18:05.242Z,94169.06
2018-08-01T09:20:32.937Z,94164.02
2018-08-01T09:23:00.685Z,94166.08
2018-08-01T09:25:28.394Z,94166.28
2018-08-01T09:27:56.267Z,94175.80
2018-08-01T09:30:24.016Z,94174.22
2018-08-01T09:32:51.722Z,94174.81
2018-08-01T09:35:19.501Z,94180.64
2018-08-01T09:37:47.242Z,94172.92
2018-08-01T09:40:14.934Z,94175.82
2018-08-01T09:42:42.949Z,94171.80
2018-08-01T09:45:11.614Z,94180.58
2018-08-01T09:47:39.307Z,94172.75
2018-08-01T09:50:08.167Z,94173.30
2018-08-01T09:52:36.356Z,94173.52
2018-08-01T09:55:05.939Z,94167.97
2018-08-01T09:57:33.016Z,94183.66
2018-08-01T10:00:00.943Z,94174.98
2018-08-01T10:02:38.718Z,94170.05
2018-08-01T10:05:06.862Z,94174.30
2018-08-01T10:07:34.591Z,94170.59
2018-08-01T10:10:02.308Z,94169.79
2018-08-01T10:12:30.443Z,94163.58
2018-08-01T10:14:58.225Z,94170.66
2018-08-01T10:17:25.890Z,94171.86
2018-08-01T10:19:53.597Z,94159.47
2018-08-01T10:22:23.244Z,94165.88
2018-08-01T10:24:55.718Z,94161.97
2018-08-01T10:27:24.445Z,94158.38
2018-08-01T10:29:52.210Z,94153.83
2018-08-01T10:32:19.992Z,94153.08
2018-08-01T10:34:48.410Z,94150.06
2018-08-01T10:37:16.261Z,94155.70
2018-08-01T10:39:44.020Z,94143.48
2018-08-01T10:42:11.662Z,94154.78
2018-08-01T10:44:39.354Z,94145.41
2018-08-01T10:47:07.773Z,94147.48
2018-08-01T10:49:35.901Z,94148.73
2018-08-01T10:52:04.074Z,94143.53
2018-08-01T10:54:31.914Z,94147.28
2018-08-01T10:57:00.092Z,94138.18
2018-08-01T10:59:28.193Z,94141.59
2018-08-01T11:01:55.898Z,94141.76
2018-08-01T11:04:23.598Z,94136.85
2018-08-01T11:06:51.301Z,94136.02
2018-08-01T11:09:18.989Z,94132.31
2018-08-01T11:11:46.898Z,94129.67
2018-08-01T11:14:14.588Z,94138.97
2018-08-01T11:16:43.002Z,94134.14
2018-08-01T11:19:11.311Z,94130.73
2018-08-01T11:21:39.004Z,94129.27
2018-08-01T11:24:06.809Z,94124.33
2018-08-01T11:26:34.642Z,94125.47
2018-08-01T11:29:02.342Z,94113.33
2018-08-01T11:31:30.078Z,94128.36
2018-08-01T11:33:58.060Z,94121.49
2018-08-01T11:36:25.862Z,94120.11
2018-08-01T11:38:54.122Z,94114.85
2018-08-01T11:41:21.923Z,94106.41
2018-08-01T11:43:50.001Z,94104.42
2018-08-01T11:46:17.701Z,94107.66
2018-08-01T11:48:46.118Z,94104.69
2018-08-01T11:51:13.821Z,94098.97
2018-08-01T11:53:41.494Z,94105.92
2018-08-01T11:56:09.506Z,94107.19
2018-08-01T11:58:37.590Z,94108.96
2018-08-01T12:01:05.338Z,94103.83
2018-08-01T12:03:33.025Z,94109.25
2018-08-01T12:06:00.727Z,94096.13
2018-08-01T12:08:28.433Z,94103.95
2018-08-01T12:10:56.110Z,94108.46
2018-08-01T12:13:23.823Z,94109.17
2018-08-01T12:15:51.538Z,94105.30
2018-08-01T12:18:19.347Z,94108.13
2018-08-01T12:20:46.992Z,94118.84
2018-08-01T12:23:14.656Z,94113.91
2018-08-01T12:25:42.395Z,94111.80
2018-08-01T12:28:10.135Z,94113.35
2018-08-01T12:30:37.811Z,94118.95
2018-08-01T12:33:05.638Z,94095.70
2018-08-01T12:35:33.326Z,94123.61
2018-08-01T12:38:01.017Z,94108.36
2018-08-01T12:40:28.722Z,94104.63
2018-08-01T12:42:56.420Z,94116.38
2018-08-01T12:45:24.171Z,94103.75
2018-08-01T12:47:51.875Z,94111.56
2018-08-01T12:50:19.553Z,94114.55
2018-08-01T12:52:47.282Z,94102.68
2018-08-01T12:55:15.017Z,94118.23
2018-08-01T12:57:42.679Z,94103.41
2018-08-01T13:00:10.434Z,94100.31
2018-08-01T13:02:38.191Z,94102.45
2018-08-01T13:05:06.474Z,94115.58
2018-08-01T13:07:34.209Z,94114.53
2018-08-01T13:10:01.882Z,94122.84
2018-08-01T13:12:29.576Z,94122.91
2018-08-01T13:14:57.298Z,94117.48
2018-08-01T13:17:25.009Z,94104.41
2018-08-01T13:19:52.719Z,94110.48
2018-08-01T13:22:20.482Z,94117.34
2018-08-01T13:24:48.258Z,94092.27
2018-08-01T13:27:15.955Z,94119.09
2018-08-01T13:29:43.657Z,94119.68
2018-08-01T13:32:11.373Z,94128.43
2018-08-01T13:34:39.021Z,94123.90
2018-08-01T13:37:06.709Z,94112.58
2018-08-01T13:39:34.398Z,94120.06
2018-08-01T13:42:02.150Z,94128.75
2018-08-01T13:44:29.789Z,94130.16
2018-08-01T13:46:57.471Z,94137.95
2018-08-01T13:49:25.198Z,94128.11
2018-08-01T13:51:52.902Z,94130.65
2018-08-01T13:54:20.546Z,94124.42
2018-08-01T13:56:48.207Z,94155.05
2018-08-01T13:59:16.119Z,94135.77
2018-08-01T14:01:43.810Z,94148.94
2018-08-01T14:04:11.514Z,94149.63
2018-08-01T14:06:39.220Z,94155.33
2018-08-01T14:09:07.874Z,94155.82
2018-08-01T14:11:35.648Z,94150.74
2018-08-01T14:14:03.350Z,94146.27
2018-08-01T14:16:31.322Z,94141.34
2018-08-01T14:18:59.034Z,94148.43
2018-08-01T14:21:26.706Z,94137.44
2018-08-01T14:23:54.414Z,94141.08
2018-08-01T14:26:22.091Z,94139.31
2018-08-01T14:28:49.811Z,94135.91
2018-08-01T14:31:17.545Z,94137.84
2018-08-01T14:33:45.270Z,94145.75
2018-08-01T14:36:12.983Z,94154.91
2018-08-01T14:38:40.661Z,94157.88
2018-08-01T14:41:08.378Z,94148.88
2018-08-01T14:43:36.048Z,94145.92
2018-08-01T14:46:03.770Z,94137.91
2018-08-01T14:48:31.498Z,94157.42
2018-08-01T14:50:59.762Z,94160.77
2018-08-01T14:53:27.489Z,94157.23
2018-08-01T14:55:55.338Z,94155.12
2018-08-01T14:58:23.057Z,94160.42
2018-08-01T15:00:50.758Z,94170.97
2018-08-01T15:03:18.462Z,94173.50
2018-08-01T15:05:46.522Z,94175.78
2018-08-01T15:08:14.135Z,94174.52
2018-08-01T15:10:48.886Z,94178.61
2018-08-01T15:13:17.715Z,94176.31
2018-08-01T15:15:45.627Z,94169.66
2018-08-01T15:18:13.938Z,94174.61
2018-08-01T15:20:41.702Z,94171.66
2018-08-01T15:23:09.914Z,94180.84
2018-08-01T15:25:37.754Z,94182.54
2018-08-01T15:28:05.541Z,94181.71
2018-08-01T15:30:33.284Z,94187.68
2018-08-01T15:33:01.062Z,94188.30
2018-08-01T15:35:28.788Z,94202.39
2018-08-01T15:37:56.499Z,94211.37
2018-08-01T15:40:24.199Z,94209.20
2018-08-01T15:42:51.878Z,94218.44
2018-08-01T15:45:19.701Z,94224.02
2018-08-01T15:47:47.435Z,94218.89
2018-08-01T15:50:15.173Z,94218.14
2018-08-01T15:52:42.915Z,94216.53
2018-08-01T15:55:10.646Z,94214.92
2018-08-01T15:57:38.635Z,94211.66
2018-08-01T16:00:07.235Z,94213.91
2018-08-01T16:02:34.926Z,94213.85
2018-08-01T16:05:02.697Z,94223.20
2018-08-01T16:07:30.390Z,94216.31
2018-08-01T16:09:58.086Z,94212.30
2018-08-01T16:12:26.815Z,94212.67
2018-08-01T16:14:54.459Z,94217.95
2018-08-01T16:17:22.202Z,94209.92
2018-08-01T16:19:49.909Z,94217.94
2018-08-01T16:22:17.619Z,94227.19
2018-08-01T16:24:45.569Z,94227.78
2018-08-01T16:27:13.338Z,94227.56
2018-08-01T16:29:41.040Z,94213.09
2018-08-01T16:32:08.767Z,94214.98
2018-08-01T16:34:36.469Z,94204.00
2018-08-01T16:37:04.244Z,94210.90
2018-08-01T16:39:31.967Z,94212.84
2018-08-01T16:41:59.732Z,94202.92
2018-08-01T16:44:27.803Z,94203.25
2018-08-01T16:46:55.417Z,94182.80
2018-08-01T16:49:23.125Z,94184.38
2018-08-01T16:51:50.851Z,94194.59
2018-08-01T16:54:18.565Z,94184.36
2018-08-01T16:56:46.234Z,94174.62
2018-08-01T16:59:13.971Z,94178.11
2018-08-01T17:01:41.702Z,94183.34
2018-08-01T17:04:09.425Z,94187.11
2018-08-01T17:06:37.129Z,94187.98
2018-08-01T17:09:06.429Z,94189.31
2018-08-01T17:11:34.804Z,94184.54
2018-08-01T17:14:02.518Z,94194.22
2018-08-01T17:16:30.316Z,94191.13
2018-08-01T17:18:58.330Z,94195.02
2018-08-01T17:21:26.044Z,94185.14
2018-08-01T17:23:53.746Z,94195.70
2018-08-01T17:26:21.503Z,94214.55
2018-08-01T17:28:49.185Z,94217.84
2018-08-01T17:31:17.121Z,94215.14
2018-08-01T17:33:44.799Z,94216.77
2018-08-01T17:36:12.481Z,94217.61
2018-08-01T17:38:40.331Z,94219.48
2018-08-01T17:41:08.011Z,94219.48
2018-08-01T17:43:35.910Z,94218.95
2018-08-01T17:46:03.939Z,94218.48
2018-08-01T17:48:31.652Z,94229.20
2018-08-01T17:50:59.369Z,94238.33
2018-08-01T17:53:27.080Z,94228.14
2018-08-01T17:55:54.818Z,94228.97
2018-08-01T17:58:22.517Z,94226.01
2018-08-01T18:00:50.278Z,94232.50
2018-08-01T18:03:17.995Z,94218.25
2018-08-01T18:05:45.693Z,94230.38
2018-08-01T18:08:13.712Z,94235.19
2018-08-01T18:10:41.391Z,94238.97
2018-08-01T18:13:10.066Z,94245.42
2018-08-01T18:15:37.795Z,94242.20
2018-08-01T18:18:05.591Z,94243.27
2018-08-01T18:20:33.313Z,94238.70
2018-08-01T18:23:01.005Z,94249.97
2018-08-01T18:25:28.835Z,94254.53
2018-08-01T18:27:56.558Z,94278.94
2018-08-01T18:30:24.381Z,94283.52
2018-08-01T18:32:52.359Z,94294.24
2018-08-01T18:35:20.086Z,94295.30
2018-08-01T18:37:47.804Z,94315.66
2018-08-01T18:40:15.736Z,94316.17
2018-08-01T18:42:43.671Z,94319.37
2018-08-01T18:45:11.384Z,94315.66
2018-08-01T18:47:39.443Z,94316.69
2018-08-01T18:50:07.139Z,94308.44
2018-08-01T18:52:34.841Z,94303.81
2018-08-01T18:55:02.642Z,94309.19
2018-08-01T18:57:30.401Z,94316.11
2018-08-01T18:59:58.542Z,94310.73
2018-08-01T19:02:26.311Z,94305.92
2018-08-01T19:04:54.011Z,94304.80
2018-08-01T19:07:21.772Z,94299.98
2018-08-01T19:09:49.500Z,94298.36
2018-08-01T19:12:17.262Z,94289.55
2018-08-01T19:14:44.967Z,94289.26
2018-08-01T19:17:12.656Z,94288.20
2018-08-01T19:19:40.735Z,94293.56
2018-08-01T19:22:08.432Z,94296.19
2018-08-01T19:24:36.118Z,94291.87
2018-08-01T19:27:03.830Z,94302.11
2018-08-01T19:29:31.544Z,94301.04
2018-08-01T19:31:59.304Z,94308.00
2018-08-01T19:34:27.021Z,94306.36
2018-08-01T19:36:54.759Z,94311.19
2018-08-01T19:39:22.475Z,94314.93
2018-08-01T19:41:50.220Z,94315.48
2018-08-01T19:44:17.912Z,94318.13
2018-08-01T19:46:45.598Z,94321.33
2018-08-01T19:49:13.467Z,94320.01
2018-08-01T19:51:41.412Z,94323.50
2018-08-01T19:54:09.326Z,94324.80
2018-08-01T19:56:37.996Z,94326.69
2018-08-01T19:59:05.294Z,94324.01
2018-08-01T20:01:33.032Z,94325.38
2018-08-01T20:04:00.718Z,94341.46
2018-08-01T20:06:28.392Z,94351.38
2018-08-01T20:08:56.294Z,94362.64
2018-08-01T20:11:24.858Z,94367.48
2018-08-01T20:13:52.554Z,94383.26
2018-08-01T20:16:20.302Z,94393.74
2018-08-01T20:18:48.072Z,94407.17
2018-08-01T20:21:15.783Z,94407.05
2018-08-01T20:23:44.194Z,94415.19
2018-08-01T20:26:11.882Z,94414.06
2018-08-01T20:28:39.593Z,94407.45
2018-08-01T20:31:07.319Z,94403.42
2018-08-01T20:33:35.170Z,94405.05
2018-08-01T20:36:04.138Z,94401.02
2018-08-01T20:38:31.840Z,94398.87
2018-08-01T20:40:59.712Z,94407.17
2018-08-01T20:43:27.419Z,94408.98
2018-08-01T20:45:55.156Z,94407.06
2018-08-01T20:48:22.912Z,94414.05
2018-08-01T20:50:50.607Z,94402.58
2018-08-01T20:53:18.473Z,94415.11
2018-08-01T20:55:46.283Z,94406.56
2018-08-01T20:58:14.011Z,94399.31
2018-08-01T21:00:41.790Z,94390.52
2018-08-01T21:03:09.710Z,94392.34
2018-08-01T21:05:37.422Z,94387.26
2018-08-01T21:08:05.216Z,94385.61
2018-08-01T21:10:33.195Z,94400.60
2018-08-01T21:13:00.871Z,94403.03
2018-08-01T21:15:28.544Z,94409.47
2018-08-01T21:17:57.445Z,94410.33
2018-08-01T21:20:25.192Z,94411.88
2018-08-01T21:22:52.945Z,94420.41
2018-08-01T21:25:20.638Z,94429.95
2018-08-01T21:27:48.316Z,94432.66
2018-08-01T21:30:16.044Z,94435.30
2018-08-01T21:32:43.879Z,94440.84
2018-08-01T21:35:11.578Z,94440.03
2018-08-01T21:37:39.539Z,94439.79
2018-08-01T21:40:07.219Z,94447.85
2018-08-01T21:42:34.977Z,94440.09
2018-08-01T21:45:02.749Z,94438.80
2018-08-01T21:47:30.415Z,94448.17
2018-08-01T21:49:58.111Z,94446.77
2018-08-01T21:52:25.821Z,94452.68
2018-08-01T21:54:53.516Z,94463.64
2018-08-01T21:57:21.248Z,94456.34
2018-08-01T21:59:48.969Z,94455.53
2018-08-01T22:02:16.674Z,94459.20
2018-08-01T22:04:44.370Z,94466.09
2018-08-01T22:07:12.043Z,94465.77
2018-08-01T22:09:39.741Z,94457.50
2018-08-01T22:12:08.098Z,94456.33
2018-08-01T22:14:36.545Z,94465.69
2018-08-01T22:17:04.761Z,94461.44
2018-08-01T22:19:32.502Z,94458.52
2018-08-01T22:22:00.213Z,94460.14
2018-08-01T22:24:27.870Z,94448.11
2018-08-01T22:26:55.560Z,94460.45
2018-08-01T22:29:23.350Z,94457.19
2018-08-01T22:31:51.043Z,94460.53
2018-08-01T22:34:19.252Z,94461.49
2018-08-01T22:36:46.918Z,94460.67
2018-08-01T22:39:14.567Z,94453.70
2018-08-01T22:41:42.595Z,94456.62
2018-08-01T22:44:10.275Z,94466.13
2018-08-01T22:46:37.925Z,94458.14
2018-08-01T22:49:05.644Z,94458.72
2018-08-01T22:51:33.418Z,94451.63
2018-08-01T22:54:01.204Z,94450.70
2018-08-01T22:56:28.854Z,94453.02
2018-08-01T22:58:56.573Z,94442.27
2018-08-01T23:01:24.270Z,94431.38
2018-08-01T23:03:51.961Z,94432.18
2018-08-01T23:06:19.706Z,94440.66
2018-08-01T23:08:47.427Z,94446.67
2018-08-01T23:11:15.154Z,94444.48
2018-08-01T23:13:42.896Z,94447.18
2018-08-01T23:16:10.586Z,94446.14
2018-08-01T23:18:38.406Z,94444.71
2018-08-01T23:21:06.066Z,94439.97
2018-08-01T23:23:33.799Z,94440.52
2018-08-01T23:26:01.478Z,94434.66
2018-08-01T23:28:29.171Z,94427.88
2018-08-01T23:30:56.847Z,94428.58
2018-08-01T23:33:24.545Z,94423.94
2018-08-01T23:35:52.223Z,94425.83
2018-08-01T23:38:19.901Z,94432.11
2018-08-01T23:40:47.554Z,94426.30
2018-08-01T23:43:15.235Z,94426.04
2018-08-01T23:45:42.946Z,94434.66
2018-08-01T23:48:10.637Z,94439.14
2018-08-01T23:50:38.342Z,94437.27
2018-08-01T23:53:06.109Z,94432.11
2018-08-01T23:55:33.763Z,94431.23
2018-08-01T23:58:01.442Z,94440.27
